Westmoreland, New Hampshire
Current Conditions -  °F | °C
As of 2:15 AM on Thursday 18 Dec 2014 (Local Time) from KEEN Reporting Station
Overcast Overcast  
Wind Chill: 30°   Ceiling: 8000
Heat Index: 34°   Visibility: 6mi
Dew Point: 30°   Wind: 5mph
Humidity: 87%   Direction: 220°SW
Pressure: 29.74"   Gusts: NA
Location:  42.96°N, 72.44°W
Report Text: KEEN 180715Z AUTO 22004KT 6SM FEW032 SCT055 OVC080 01/M01 A2974 RMK AO1
Loading
Personal Weather Stations






























Interactive Weather Map New forecast layout! Learn more

10-Day Weather Forecast

Advertisements
Track Severe Weather on mobile